Time;durP1;ratioP1;P1;durP2;ratioP2;P2;SDS_P1;SDS_P2;PMS_P1;PMS_P2;Temp;Humidity;BMP_temperature;BMP_pressure;BME280_temperature;BME280_humidity;BME280_pressure;Samples;Min_cycle;Max_cycle;Signal;HPM_P1;HPM_P2
2024/03/05 00:02:59;;;;;;;55.83;31.70;;;;;;;13.54;59.67;98335.91;7033716;28;20239;-81
2024/03/05 00:06:21;;;;;;;56.53;31.17;;;;;;;13.51;59.78;98336.41;7033729;28;20207;-82
2024/03/05 00:09:42;;;;;;;54.07;30.60;;;;;;;13.54;59.74;98334.06;7033306;28;20820;-81
2024/03/05 00:13:06;;;;;;;58.67;30.43;;;;;;;13.36;60.18;98327.91;7033933;28;20204;-79
2024/03/05 00:16:29;;;;;;;57.50;31.13;;;;;;;13.32;60.63;98341.09;7033791;28;20253;-81
2024/03/05 00:19:50;;;;;;;56.07;31.70;;;;;;;13.43;60.22;98339.44;7033531;28;20225;-79
2024/03/05 00:23:12;;;;;;;58.43;31.63;;;;;;;13.38;60.16;98347.44;7034037;28;20712;-81
2024/03/05 00:26:34;;;;;;;61.77;33.20;;;;;;;13.44;60.06;98352.75;7033277;28;20228;-82
2024/03/05 00:29:56;;;;;;;64.10;33.40;;;;;;;13.22;60.24;98315.66;7031313;28;20237;-81
2024/03/05 00:33:19;;;;;;;57.10;31.53;;;;;;;13.31;60.58;98350.28;7033779;28;20208;-82
2024/03/05 00:36:41;;;;;;;60.90;33.43;;;;;;;13.50;60.01;98350.97;7026647;28;20194;-81
2024/03/05 00:40:04;;;;;;;63.70;33.33;;;;;;;13.47;59.70;98352.31;7032448;28;20720;-81
2024/03/05 00:43:25;;;;;;;58.93;33.97;;;;;;;13.57;60.08;98362.56;7032943;28;20228;-81
2024/03/05 00:46:47;;;;;;;61.60;31.77;;;;;;;13.42;60.11;98359.47;7032904;28;20285;-80
2024/03/05 00:50:13;;;;;;;66.50;32.63;;;;;;;13.23;60.63;98342.47;7032583;28;20376;-82
2024/03/05 00:53:34;;;;;;;65.47;33.27;;;;;;;13.28;60.66;98358.84;7032505;28;20211;-81
2024/03/05 00:56:56;;;;;;;64.20;33.60;;;;;;;13.29;60.94;98357.78;7032910;28;20292;-81
2024/03/05 01:00:19;;;;;;;64.10;33.57;;;;;;;13.43;60.31;98363.81;7032820;28;20667;-81
2024/03/05 01:03:41;;;;;;;65.60;33.30;;;;;;;13.49;60.39;98368.31;7032696;28;20225;-82
2024/03/05 01:07:03;;;;;;;63.17;32.37;;;;;;;13.36;60.53;98363.09;7032279;28;20687;-81
2024/03/05 01:10:25;;;;;;;65.70;32.30;;;;;;;13.50;60.04;98349.13;7032494;28;20326;-81
2024/03/05 01:13:46;;;;;;;64.33;33.70;;;;;;;13.69;60.01;98361.47;7013174;28;20234;-82
2024/03/05 01:17:08;;;;;;;67.50;33.57;;;;;;;13.63;59.79;98367.03;7004535;28;20239;-81
2024/03/05 01:20:30;;;;;;;62.83;32.60;;;;;;;13.50;60.00;98350.97;7004331;28;20571;-81
2024/03/05 01:23:53;;;;;;;65.80;32.90;;;;;;;13.76;59.60;98350.53;7004597;28;20316;-81
2024/03/05 01:27:14;;;;;;;57.70;31.00;;;;;;;13.89;58.60;98353.00;7004678;28;20233;-81
2024/03/05 01:30:36;;;;;;;67.53;33.90;;;;;;;13.51;59.66;98347.25;7003145;28;20263;-81
2024/03/05 01:33:58;;;;;;;60.00;29.80;;;;;;;13.79;58.95;98352.75;7004055;28;20552;-81
2024/03/05 01:37:19;;;;;;;65.30;32.53;;;;;;;13.89;58.71;98361.13;7004212;28;20315;-81
2024/03/05 01:40:43;;;;;;;58.87;31.23;;;;;;;13.56;59.29;98358.16;7013013;28;20347;-83
2024/03/05 01:44:05;;;;;;;61.17;35.00;;;;;;;13.74;59.24;98364.31;7031636;28;20317;-84
2024/03/05 01:47:27;;;;;;;63.37;33.80;;;;;;;13.70;59.06;98355.00;7030512;28;20586;-81
2024/03/05 01:50:49;;;;;;;63.23;33.37;;;;;;;13.43;59.82;98355.69;7031880;28;20215;-80
2024/03/05 01:54:10;;;;;;;63.83;32.87;;;;;;;13.71;59.13;98345.84;7031559;28;20230;-81
2024/03/05 01:57:34;;;;;;;60.77;31.70;;;;;;;13.83;58.75;98351.22;7031431;28;20842;-82
2024/03/05 02:00:57;;;;;;;66.80;33.87;;;;;;;13.44;59.57;98357.34;7030871;28;20217;-81
2024/03/05 02:04:18;;;;;;;60.03;33.83;;;;;;;13.71;59.35;98359.38;7031610;28;20364;-82
2024/03/05 02:07:40;;;;;;;66.67;35.27;;;;;;;13.88;58.87;98357.63;7030755;28;20765;-82
2024/03/05 02:11:02;;;;;;;63.70;33.27;;;;;;;13.82;58.57;98341.47;7002861;28;20302;-82
2024/03/05 02:14:27;;;;;;;64.40;34.07;;;;;;;13.36;59.60;98354.97;7003494;28;20210;-81
2024/03/05 02:17:49;;;;;;;63.20;32.73;;;;;;;13.70;59.32;98359.59;7002891;28;20226;-80
2024/03/05 02:21:19;;;;;;;62.27;32.37;;;;;;;13.68;58.90;98353.63;7018086;28;20259;-82
2024/03/05 02:24:40;;;;;;;63.20;33.33;;;;;;;13.79;58.95;98356.31;7031192;28;20278;-82
2024/03/05 02:28:03;;;;;;;63.80;32.40;;;;;;;13.76;58.69;98351.34;7030176;28;20315;-81
2024/03/05 02:31:24;;;;;;;66.30;34.70;;;;;;;13.23;59.92;98355.22;7027541;28;20279;-81
2024/03/05 02:34:46;;;;;;;69.87;34.83;;;;;;;13.22;60.77;98359.78;7002413;28;20244;-82
2024/03/05 02:38:09;;;;;;;67.20;34.40;;;;;;;13.37;60.62;98356.63;7023409;28;20658;-81
2024/03/05 02:41:31;;;;;;;65.67;37.30;;;;;;;13.41;60.31;98352.41;7029612;28;20214;-82
2024/03/05 02:44:52;;;;;;;67.37;35.07;;;;;;;13.53;59.69;98355.94;7030260;28;20737;-82
2024/03/05 02:48:14;;;;;;;65.70;34.27;;;;;;;13.47;59.69;98356.88;7002685;28;20359;-82
2024/03/05 02:51:35;;;;;;;67.50;34.53;;;;;;;13.45;59.93;98359.81;7001455;28;20286;-80
2024/03/05 02:54:59;;;;;;;63.23;33.73;;;;;;;13.53;59.63;98353.25;7002676;28;20205;-82
2024/03/05 02:58:20;;;;;;;68.47;33.70;;;;;;;13.54;59.47;98361.13;7001036;28;20296;-82
2024/03/05 03:01:46;;;;;;;67.23;33.80;;;;;;;13.73;58.91;98359.97;7002447;28;20747;-80
2024/03/05 03:05:09;;;;;;;65.33;32.90;;;;;;;13.46;59.90;98366.06;7015652;28;20212;-81
2024/03/05 03:08:33;;;;;;;60.87;33.83;;;;;;;13.55;59.72;98368.19;7030754;28;20229;-81
2024/03/05 03:11:56;;;;;;;59.60;32.60;;;;;;;13.79;58.86;98350.03;7030966;28;20206;-81
2024/03/05 03:15:19;;;;;;;62.30;31.27;;;;;;;13.85;58.84;98362.66;7030677;28;20213;-80
2024/03/05 03:18:42;;;;;;;61.70;34.53;;;;;;;13.87;58.64;98365.97;7029798;28;20236;-82
2024/03/05 03:22:04;;;;;;;58.97;33.63;;;;;;;13.84;58.65;98372.69;7030220;28;20685;-81
2024/03/05 03:25:25;;;;;;;59.37;32.30;;;;;;;13.74;58.78;98366.22;7030208;28;20719;-82
2024/03/05 03:28:48;;;;;;;70.80;32.60;;;;;;;13.68;59.14;98372.56;7029858;28;20261;-81
2024/03/05 03:32:11;;;;;;;70.07;34.47;;;;;;;13.71;59.28;98372.09;7029553;28;20197;-81
2024/03/05 03:35:32;;;;;;;69.73;34.00;;;;;;;13.22;59.86;98370.59;7029942;28;20205;-82
2024/03/05 03:38:54;;;;;;;62.67;33.50;;;;;;;13.34;60.57;98357.91;7029337;28;20374;-81
2024/03/05 03:42:16;;;;;;;66.50;32.90;;;;;;;13.47;60.13;98367.72;7030504;28;20245;-84
2024/03/05 03:45:38;;;;;;;69.67;33.57;;;;;;;13.64;59.94;98368.69;7030646;28;20259;-84
2024/03/05 03:49:00;;;;;;;59.17;31.83;;;;;;;13.81;58.94;98364.22;7029739;28;20309;-83
2024/03/05 03:52:22;;;;;;;58.83;30.73;;;;;;;13.69;59.08;98366.91;7030121;28;20721;-83
2024/03/05 03:56:14;;;;;;;65.87;34.33;;;;;;;13.17;59.37;98319.03;7029498;28;20284;-84
2024/03/05 03:59:39;;;;;;;62.93;31.73;;;;;;;13.55;59.29;98351.94;7029682;28;20240;-84
2024/03/05 04:03:06;;;;;;;66.90;33.37;;;;;;;13.08;59.75;98303.38;7001572;28;20328;-82
2024/03/05 04:06:39;;;;;;;66.53;33.87;;;;;;;13.29;59.31;98321.78;7001839;28;20210;-84
2024/03/05 04:10:01;;;;;;;73.13;37.03;;;;;;;13.43;59.97;98377.34;7000357;28;20233;-84
2024/03/05 04:13:23;;;;;;;67.57;33.17;;;;;;;13.42;60.03;98381.13;7020499;28;20205;-84
2024/03/05 04:16:44;;;;;;;68.13;33.23;;;;;;;13.25;60.50;98381.00;7035056;28;20290;-84
2024/03/05 04:20:09;;;;;;;80.47;34.50;;;;;;;13.24;60.58;98392.03;7034334;28;20317;-84
2024/03/05 04:23:31;;;;;;;73.77;33.50;;;;;;;13.22;60.60;98389.56;7035200;28;20946;-84
2024/03/05 04:26:53;;;;;;;68.50;34.77;;;;;;;12.62;60.80;98281.63;7035094;28;20299;-83
2024/03/05 04:30:15;;;;;;;67.77;32.43;;;;;;;13.49;60.33;98389.97;7031938;28;20212;-84
2024/03/05 04:33:37;;;;;;;64.53;32.70;;;;;;;13.33;60.16;98388.75;7034095;28;20232;-84
2024/03/05 04:37:00;;;;;;;77.77;35.70;;;;;;;13.45;59.96;98399.63;7034818;28;20212;-84
2024/03/05 04:40:22;;;;;;;67.97;32.87;;;;;;;13.51;59.45;98394.09;7034516;28;20217;-83
2024/03/05 04:43:43;;;;;;;69.63;32.07;;;;;;;13.57;59.61;98390.44;7034491;28;20312;-84
2024/03/05 04:47:05;;;;;;;68.37;33.57;;;;;;;13.42;59.67;98397.38;7033716;28;20728;-84
2024/03/05 04:50:26;;;;;;;62.40;31.80;;;;;;;13.58;59.39;98392.09;7034695;28;20232;-84
2024/03/05 04:53:49;;;;;;;70.33;32.17;;;;;;;13.36;59.75;98398.31;7006020;28;20202;-84
2024/03/05 04:57:11;;;;;;;78.23;35.03;;;;;;;13.28;60.06;98390.53;7005768;28;20699;-84
2024/03/05 05:00:32;;;;;;;73.37;31.77;;;;;;;13.23;60.15;98401.22;7005179;28;20297;-83
2024/03/05 05:03:54;;;;;;;69.57;33.00;;;;;;;13.45;59.85;98411.28;7006552;28;20293;-84
2024/03/05 05:07:16;;;;;;;73.47;32.30;;;;;;;13.53;59.42;98415.53;7006289;28;20315;-84
2024/03/05 05:10:39;;;;;;;75.47;33.93;;;;;;;13.34;59.45;98411.25;7005323;28;20224;-84
2024/03/05 05:14:00;;;;;;;65.43;32.40;;;;;;;13.15;60.10;98407.78;7008502;28;20360;-84
2024/03/05 05:17:22;;;;;;;74.67;34.57;;;;;;;13.44;59.21;98406.91;7006165;28;20316;-84
2024/03/05 05:20:44;;;;;;;79.00;33.13;;;;;;;12.81;60.63;98402.22;7006023;28;20223;-83
2024/03/05 05:24:06;;;;;;;67.27;31.57;;;;;;;12.92;61.12;98406.88;7028228;28;20220;-83
2024/03/05 05:35:55;;;;;;;63.03;31.33;;;;;;;13.18;60.06;98379.44;6920365;28;20168;-83
2024/03/05 05:39:17;;;;;;;65.03;30.77;;;;;;;13.29;59.77;98386.75;6906157;28;20311;-83
2024/03/05 05:42:40;;;;;;;64.70;30.83;;;;;;;13.21;59.90;98379.00;6917880;28;20262;-84
2024/03/05 05:49:58;;;;;;;65.87;29.80;;;;;;;12.51;60.11;98340.00;6916201;28;20293;-84
2024/03/05 06:23:19;;;;;;;66.50;31.00;;;;;;;12.23;61.85;98349.72;6824633;29;20221;-84
2024/03/05 06:26:41;;;;;;;74.37;33.17;;;;;;;12.88;61.93;98440.84;6831468;28;20230;-83
2024/03/05 06:30:02;;;;;;;67.83;31.33;;;;;;;13.01;61.49;98441.53;6845008;28;20791;-85
2024/03/05 06:33:24;;;;;;;75.57;32.13;;;;;;;12.99;61.86;98440.09;6844937;28;20297;-81
2024/03/05 06:36:46;;;;;;;79.10;33.97;;;;;;;13.05;61.69;98450.81;6824631;28;20209;-81
2024/03/05 06:40:10;;;;;;;70.17;32.83;;;;;;;12.54;61.42;98333.31;6886570;28;20231;-81
2024/03/05 06:43:36;;;;;;;65.10;31.80;;;;;;;13.21;61.26;98452.06;6953147;28;20267;-81
2024/03/05 06:46:57;;;;;;;69.13;30.53;;;;;;;13.17;61.15;98448.97;7003278;28;20211;-81
2024/03/05 06:50:21;;;;;;;68.90;31.13;;;;;;;13.35;60.71;98446.25;7002042;28;20252;-81
2024/03/05 07:35:37;;;;;;;76.83;36.17;;;;;;;13.27;61.59;98464.69;6962731;28;20203;-83
2024/03/05 07:38:59;;;;;;;76.13;34.30;;;;;;;13.31;61.23;98469.41;6964104;28;20242;-83
2024/03/05 07:42:21;;;;;;;69.50;33.23;;;;;;;13.48;61.01;98474.97;7008968;28;20215;-83
2024/03/05 07:45:43;;;;;;;72.93;33.20;;;;;;;13.38;61.18;98480.13;7036260;28;20253;-82
2024/03/05 07:49:04;;;;;;;81.03;33.93;;;;;;;13.36;61.52;98477.66;7039852;28;20229;-81
2024/03/05 07:52:27;;;;;;;77.00;32.07;;;;;;;13.30;61.68;98483.16;7026691;28;20206;-83
2024/03/05 07:55:49;;;;;;;79.57;33.97;;;;;;;13.20;62.09;98493.72;7014842;28;20676;-83
2024/03/05 07:59:11;;;;;;;80.97;34.50;;;;;;;13.34;61.61;98498.72;7030309;28;20246;-83
2024/03/05 08:02:32;;;;;;;81.50;33.90;;;;;;;13.30;61.66;98492.13;7039940;28;20227;-81
2024/03/05 08:05:54;;;;;;;75.27;34.33;;;;;;;13.41;61.78;98495.94;7033357;28;20233;-83
2024/03/05 08:09:17;;;;;;;77.50;33.80;;;;;;;13.69;61.06;98494.22;7036197;28;20250;-83
2024/03/05 08:12:42;;;;;;;76.27;33.73;;;;;;;13.49;61.36;98491.00;7044125;28;20307;-83
2024/03/05 08:16:04;;;;;;;81.47;34.53;;;;;;;13.38;61.60;98496.38;7042059;28;20202;-82
2024/03/05 08:19:25;;;;;;;76.40;33.83;;;;;;;13.53;61.39;98488.66;7043519;28;20256;-82
2024/03/05 08:22:47;;;;;;;72.50;31.70;;;;;;;13.76;61.13;98494.13;7038762;28;20687;-83
2024/03/05 08:26:11;;;;;;;68.07;30.80;;;;;;;13.95;60.12;98493.81;7040527;28;20244;-82
2024/03/05 08:29:32;;;;;;;72.63;32.60;;;;;;;13.74;60.65;98497.06;7039368;28;20367;-81
2024/03/05 08:32:56;;;;;;;72.73;32.67;;;;;;;13.83;60.42;98500.28;7056831;28;20185;-81
2024/03/05 08:36:17;;;;;;;65.87;32.10;;;;;;;13.83;60.58;98500.28;7055817;28;20259;-80
2024/03/05 08:39:39;;;;;;;77.97;33.23;;;;;;;13.71;60.80;98510.25;7054986;28;20215;-80
2024/03/05 08:43:03;;;;;;;75.87;33.17;;;;;;;13.86;60.74;98505.25;7061477;28;20209;-80
2024/03/05 08:46:24;;;;;;;73.00;32.57;;;;;;;13.97;60.27;98497.13;7062137;28;20260;-81
2024/03/05 08:49:50;;;;;;;78.43;34.03;;;;;;;13.81;60.63;98499.69;7061481;28;20209;-80
2024/03/05 08:53:11;;;;;;;73.53;33.60;;;;;;;14.00;60.28;98509.38;7059114;28;20199;-80
2024/03/05 08:56:34;;;;;;;75.93;34.10;;;;;;;14.01;60.29;98498.31;7056480;28;20212;-84
2024/03/05 09:00:02;;;;;;;72.73;34.37;;;;;;;13.70;60.94;98505.91;7032046;28;20700;-83
2024/03/05 09:03:24;;;;;;;79.57;35.33;;;;;;;13.35;61.73;98504.97;7031892;28;20197;-82
2024/03/05 09:06:45;;;;;;;79.20;34.63;;;;;;;13.34;62.11;98512.25;7025670;28;20228;-82
2024/03/05 09:10:10;;;;;;;73.53;32.93;;;;;;;13.29;62.13;98503.19;7001862;28;20313;-83
2024/03/05 09:13:32;;;;;;;83.20;36.87;;;;;;;13.31;62.33;98506.47;7001778;28;20239;-83
2024/03/05 09:16:55;;;;;;;75.17;34.13;;;;;;;13.33;62.54;98509.81;7001844;28;20237;-82
2024/03/05 09:20:17;;;;;;;80.87;35.83;;;;;;;12.93;63.86;98501.31;7000695;28;20737;-79
2024/03/05 09:23:39;;;;;;;85.23;36.67;;;;;;;12.95;64.22;98520.91;7030916;28;20606;-81
2024/03/05 09:27:00;;;;;;;75.80;35.10;;;;;;;13.10;63.42;98517.81;7023808;28;20239;-83
2024/03/05 09:30:22;;;;;;;40.23;20.83;;;;;;;12.30;63.36;98482.91;7029855;28;20924;-84
2024/03/05 09:33:45;;;;;;;23.33;14.40;;;;;;;12.58;63.63;98521.09;7041458;28;20346;-84
2024/03/05 09:37:06;;;;;;;23.87;12.57;;;;;;;12.70;62.83;98530.94;7031233;28;20349;-83
2024/03/05 09:40:28;;;;;;;19.90;12.30;;;;;;;12.94;61.97;98534.63;7029733;28;20295;-83
2024/03/05 09:43:50;;;;;;;18.77;11.43;;;;;;;13.04;61.27;98526.84;7029087;28;20283;-82
2024/03/05 09:47:12;;;;;;;17.83;11.60;;;;;;;13.00;62.21;98531.03;7029436;28;20373;-83
2024/03/05 09:50:36;;;;;;;18.57;11.13;;;;;;;13.39;60.81;98538.66;7029599;28;20217;-83
2024/03/05 09:53:57;;;;;;;16.80;11.70;;;;;;;13.47;60.37;98531.06;7029380;28;20679;-83
2024/03/05 10:01:17;;;;;;;18.43;11.17;;;;;;;13.19;60.25;98546.22;7028684;28;20665;-84
2024/03/05 10:04:41;;;;;;;19.03;12.20;;;;;;;13.14;61.02;98549.59;7029378;28;20315;-84
2024/03/05 10:08:05;;;;;;;19.63;11.80;;;;;;;12.76;61.25;98504.88;7032937;28;20228;-83
2024/03/05 10:11:26;;;;;;;27.73;13.13;;;;;;;12.76;61.91;98530.03;7006390;28;20212;-82
2024/03/05 10:14:50;;;;;;;25.57;12.80;;;;;;;12.75;62.88;98551.94;7029890;28;20212;-82
2024/03/05 10:18:12;;;;;;;20.87;12.33;;;;;;;12.68;63.04;98535.75;7031203;28;20611;-83
2024/03/05 10:25:36;;;;;;;24.23;13.53;;;;;;;12.91;62.94;98556.72;6969781;28;20226;-83
2024/03/05 10:29:04;;;;;;;18.97;12.60;;;;;;;12.31;63.44;98519.72;6945017;28;20285;-84
2024/03/05 10:36:02;;;;;;;21.40;13.67;;;;;;;13.06;62.74;98555.34;6967840;28;20206;-80
2024/03/05 10:39:26;;;;;;;20.27;12.83;;;;;;;13.54;62.51;98553.44;6966667;28;20842;-80
2024/03/05 10:55:12;;;;;;;19.73;13.97;;;;;;;13.59;61.92;98556.28;6948584;28;20199;-85
2024/03/05 11:02:30;;;;;;;18.83;13.30;;;;;;;13.96;60.17;98549.69;6942633;28;20202;-83
2024/03/05 11:23:15;;;;;;;22.10;15.23;;;;;;;12.92;62.65;98563.81;6875416;28;20198;-81
2024/03/05 11:26:38;;;;;;;23.23;15.17;;;;;;;13.45;61.55;98564.84;6886312;28;20259;-83
2024/03/05 11:30:08;;;;;;;19.07;14.30;;;;;;;13.03;61.91;98554.94;6904774;28;20317;-83
2024/03/05 11:33:30;;;;;;;19.40;14.27;;;;;;;13.07;61.58;98531.78;6915882;28;20218;-82
2024/03/05 11:37:05;;;;;;;19.47;14.53;;;;;;;12.80;62.01;98549.38;6915119;28;20293;-84
2024/03/05 11:40:33;;;;;;;20.40;13.60;;;;;;;12.80;62.44;98557.50;6881477;28;20354;-83
2024/03/05 11:43:54;;;;;;;14.23;11.80;;;;;;;12.82;61.59;98564.34;6861468;28;20214;-82
2024/03/05 11:47:19;;;;;;;16.97;11.83;;;;;;;12.81;62.47;98562.66;6912053;28;20230;-80
2024/03/05 11:50:41;;;;;;;13.37;10.90;;;;;;;13.05;61.07;98566.38;6981291;28;20236;-81
2024/03/05 11:54:02;;;;;;;10.10;8.30;;;;;;;12.71;61.17;98561.53;7032378;28;20300;-81
2024/03/05 11:57:26;;;;;;;9.73;8.63;;;;;;;13.07;60.56;98570.53;7025262;28;20234;-82
2024/03/05 12:00:48;;;;;;;9.93;8.90;;;;;;;12.98;60.59;98563.75;7025856;28;20275;-82
2024/03/05 12:04:11;;;;;;;10.73;9.63;;;;;;;12.84;60.52;98523.50;7047230;28;20302;-81
2024/03/05 12:07:33;;;;;;;15.30;10.37;;;;;;;12.75;61.38;98562.75;7039129;28;20230;-81
2024/03/05 12:11:01;;;;;;;10.50;9.23;;;;;;;13.26;59.98;98539.66;7054440;28;20216;-83
2024/03/05 12:14:24;;;;;;;11.23;8.27;;;;;;;13.19;60.12;98562.44;7054274;28;20210;-82
2024/03/05 12:17:46;;;;;;;12.33;9.50;;;;;;;13.21;59.29;98552.25;7053331;28;20232;-82
2024/03/05 12:21:08;;;;;;;10.57;8.80;;;;;;;13.39;59.30;98536.78;7049879;28;20703;-81
2024/03/05 12:24:31;;;;;;;11.27;9.47;;;;;;;13.24;60.34;98547.19;7031757;28;20202;-79
2024/03/05 12:27:52;;;;;;;14.10;9.00;;;;;;;13.49;59.78;98549.75;7029967;28;20230;-82
2024/03/05 12:31:16;;;;;;;11.20;8.73;;;;;;;13.23;59.82;98555.53;7030764;28;20237;-81
2024/03/05 12:34:37;;;;;;;9.67;8.13;;;;;;;13.22;59.58;98560.09;7033037;28;20232;-80
2024/03/05 12:38:03;;;;;;;9.60;8.50;;;;;;;13.18;59.72;98558.09;7031867;28;20295;-82
2024/03/05 12:41:26;;;;;;;8.53;6.80;;;;;;;13.09;59.50;98564.88;7029997;28;20587;-84
2024/03/05 12:44:48;;;;;;;7.43;6.37;;;;;;;13.14;58.90;98556.88;7032808;28;20208;-83
2024/03/05 12:48:11;;;;;;;7.67;6.23;;;;;;;13.25;58.79;98550.72;7030386;28;20729;-82
2024/03/05 12:51:32;;;;;;;9.53;6.73;;;;;;;13.51;58.42;98561.22;7030406;28;20226;-83
2024/03/05 12:54:57;;;;;;;8.70;6.90;;;;;;;13.68;58.52;98535.13;7025912;28;20230;-80
2024/03/05 12:58:19;;;;;;;8.30;6.73;;;;;;;13.86;57.49;98533.16;7027789;28;20590;-84
2024/03/05 13:01:40;;;;;;;8.30;6.83;;;;;;;13.42;58.01;98525.50;7020962;28;20202;-83
2024/03/05 13:05:04;;;;;;;6.13;5.63;;;;;;;13.43;57.71;98550.66;7031811;28;20292;-84
2024/03/05 13:08:25;;;;;;;7.03;6.10;;;;;;;13.96;57.26;98546.13;7030771;28;20234;-84
2024/03/05 13:11:47;;;;;;;6.03;5.43;;;;;;;13.36;56.52;98418.09;7031883;28;20567;-82
2024/03/05 13:15:10;;;;;;;7.47;6.23;;;;;;;14.20;56.71;98548.69;7030601;28;20254;-84
2024/03/05 13:18:31;;;;;;;6.50;5.50;;;;;;;13.94;56.22;98554.50;7029569;28;20706;-81
2024/03/05 13:21:54;;;;;;;6.60;5.93;;;;;;;14.02;55.10;98542.47;7029095;28;20683;-80
2024/03/05 13:25:16;;;;;;;6.60;5.90;;;;;;;13.74;56.71;98550.47;7029242;28;20274;-81
2024/03/05 13:28:38;;;;;;;8.20;5.57;;;;;;;13.97;55.89;98548.63;7017876;28;20686;-81
2024/03/05 13:32:00;;;;;;;6.93;5.20;;;;;;;13.89;55.09;98550.84;7018715;28;20270;-81
2024/03/05 13:35:22;;;;;;;6.93;5.60;;;;;;;14.07;54.79;98543.47;7005780;28;20214;-81
2024/03/05 13:38:45;;;;;;;6.17;5.57;;;;;;;13.63;56.01;98548.53;7021576;28;20302;-81
2024/03/05 13:42:06;;;;;;;5.87;4.87;;;;;;;13.51;55.98;98553.06;7029862;28;20238;-81
2024/03/05 13:45:28;;;;;;;7.30;5.53;;;;;;;13.82;55.61;98550.13;7014085;28;20199;-82
2024/03/05 13:48:49;;;;;;;5.57;5.07;;;;;;;14.21;53.85;98550.34;7021110;28;20228;-83
2024/03/05 13:52:11;;;;;;;6.60;4.40;;;;;;;13.61;54.63;98559.59;7030980;28;20238;-82
2024/03/05 13:55:34;;;;;;;5.70;4.97;;;;;;;13.97;54.32;98550.47;7029057;28;20253;-83
2024/03/05 13:58:57;;;;;;;5.20;4.40;;;;;;;14.31;53.24;98555.16;7054948;28;20359;-82
2024/03/05 14:02:19;;;;;;;5.73;4.67;;;;;;;14.24;52.44;98533.59;7063729;28;20356;-83
2024/03/05 14:05:41;;;;;;;4.40;3.93;;;;;;;14.12;52.76;98540.88;7049428;28;20265;-83
2024/03/05 14:09:04;;;;;;;5.80;3.93;;;;;;;14.37;52.72;98546.94;7033575;28;20231;-82
2024/03/05 14:12:28;;;;;;;4.50;4.10;;;;;;;14.49;53.15;98544.22;7031296;28;20213;-83
2024/03/05 14:15:52;;;;;;;4.90;3.93;;;;;;;14.40;51.41;98543.72;7030176;28;20278;-81
2024/03/05 14:19:13;;;;;;;3.33;3.03;;;;;;;14.51;50.90;98547.53;7029581;28;20325;-83
2024/03/05 14:22:36;;;;;;;4.13;3.77;;;;;;;14.92;50.96;98548.19;7016084;28;20205;-83
2024/03/05 14:25:58;;;;;;;3.30;3.00;;;;;;;14.76;49.31;98529.91;7001165;28;20285;-84
2024/03/05 14:29:22;;;;;;;4.33;3.10;;;;;;;13.95;50.08;98553.44;7017616;28;20229;-82
2024/03/05 14:32:44;;;;;;;3.23;3.00;;;;;;;14.17;51.60;98559.94;7029310;28;20209;-82
2024/03/05 14:36:08;;;;;;;2.80;2.60;;;;;;;14.01;50.62;98549.81;7028975;28;20347;-84
2024/03/05 14:39:30;;;;;;;2.90;2.70;;;;;;;14.52;50.90;98555.41;7026756;28;20234;-86
2024/03/05 14:42:52;;;;;;;3.30;3.00;;;;;;;14.60;50.17;98559.66;7042487;28;20208;-84
2024/03/05 14:46:16;;;;;;;3.37;3.07;;;;;;;14.63;50.40;98562.72;7052157;28;20975;-83
2024/03/05 14:49:37;;;;;;;2.80;2.60;;;;;;;14.45;49.68;98570.97;7033867;28;20233;-83
2024/03/05 14:52:59;;;;;;;2.90;2.70;;;;;;;14.53;49.73;98569.81;7005866;28;20283;-84
2024/03/05 14:56:20;;;;;;;4.23;2.90;;;;;;;14.36;49.88;98566.16;7014161;28;20202;-84
2024/03/05 14:59:42;;;;;;;2.90;2.70;;;;;;;13.79;50.82;98564.09;7013446;28;20387;-84
2024/03/05 15:03:05;;;;;;;4.20;3.13;;;;;;;13.86;51.41;98560.25;7013840;28;20208;-83
2024/03/05 15:06:27;;;;;;;3.77;3.23;;;;;;;14.20;50.69;98566.81;7014513;28;20226;-82
2024/03/05 15:09:49;;;;;;;3.73;3.37;;;;;;;14.58;49.16;98581.59;7035287;28;20229;-84
2024/03/05 15:13:10;;;;;;;3.47;3.17;;;;;;;14.56;49.57;98575.59;7049293;28;20246;-84
2024/03/05 15:16:32;;;;;;;3.83;2.80;;;;;;;14.24;49.42;98574.28;7034318;28;20214;-81
2024/03/05 15:19:56;;;;;;;4.47;2.87;;;;;;;14.32;49.79;98575.81;7044938;28;20759;-81
2024/03/05 15:23:18;;;;;;;3.20;2.90;;;;;;;14.71;50.25;98575.13;7030661;28;20211;-82
2024/03/05 15:26:39;;;;;;;3.23;2.93;;;;;;;14.84;50.04;98574.88;7055791;28;20286;-84
2024/03/05 15:30:01;;;;;;;2.93;2.73;;;;;;;14.61;49.13;98564.84;7006924;28;20316;-81
2024/03/05 15:33:22;;;;;;;3.37;3.10;;;;;;;14.36;50.15;98580.53;7024058;28;20197;-83
2024/03/05 15:36:46;;;;;;;4.03;3.00;;;;;;;14.13;49.85;98587.78;7050891;28;20303;-84
2024/03/05 15:40:15;;;;;;;3.47;3.17;;;;;;;14.22;50.08;98594.56;7028053;28;20316;-83
2024/03/05 15:43:36;;;;;;;3.23;3.00;;;;;;;14.01;49.95;98581.50;7017141;28;20235;-81
2024/03/05 15:46:58;;;;;;;3.80;3.20;;;;;;;14.16;50.48;98585.41;7029815;28;20746;-83
2024/03/05 15:50:21;;;;;;;3.73;3.40;;;;;;;14.19;50.28;98587.72;7028302;28;20289;-81
2024/03/05 15:53:44;;;;;;;3.80;3.20;;;;;;;14.16;50.38;98590.03;7029878;28;20249;-83
2024/03/05 15:57:08;;;;;;;3.57;3.27;;;;;;;14.00;50.71;98596.13;7031777;28;20281;-81
2024/03/05 16:00:34;;;;;;;3.43;3.13;;;;;;;14.02;50.81;98602.13;7056510;28;20211;-82
2024/03/05 16:04:09;;;;;;;4.73;3.57;;;;;;;14.06;50.38;98590.59;7032318;28;20201;-81
2024/03/05 16:07:30;;;;;;;3.30;3.00;;;;;;;14.14;51.07;98589.41;7030215;28;20224;-81
2024/03/05 16:10:53;;;;;;;4.30;3.47;;;;;;;14.47;49.67;98598.72;7032210;28;20341;-81
2024/03/05 16:14:15;;;;;;;6.90;4.60;;;;;;;14.33;50.28;98593.75;7053175;28;20622;-83
2024/03/05 16:17:37;;;;;;;3.73;3.40;;;;;;;14.02;50.24;98600.25;7038150;28;20265;-82
2024/03/05 16:21:01;;;;;;;4.23;3.50;;;;;;;13.73;51.31;98606.50;7030920;28;20679;-82
2024/03/05 16:24:23;;;;;;;5.20;4.77;;;;;;;14.01;51.17;98600.47;7030916;28;20209;-83
2024/03/05 16:27:46;;;;;;;4.63;3.47;;;;;;;13.71;50.83;98576.13;7030841;28;20261;-82
2024/03/05 16:31:09;;;;;;;4.00;3.47;;;;;;;13.86;51.29;98609.03;7029689;28;20235;-82
2024/03/05 16:34:31;;;;;;;6.03;3.60;;;;;;;14.12;50.62;98596.97;7029783;28;20209;-82
2024/03/05 16:37:52;;;;;;;4.40;3.93;;;;;;;14.46;50.65;98613.31;7031059;28;20224;-82
2024/03/05 16:41:14;;;;;;;7.13;3.53;;;;;;;14.29;50.44;98611.53;7030200;28;20660;-82
2024/03/05 16:44:38;;;;;;;4.30;3.47;;;;;;;14.38;50.69;98619.09;7026740;28;20251;-82
2024/03/05 16:48:00;;;;;;;4.10;3.40;;;;;;;14.03;50.74;98607.31;7030441;28;20722;-82
2024/03/05 16:51:22;;;;;;;4.27;3.33;;;;;;;14.22;50.79;98617.06;7039930;28;20201;-83
2024/03/05 16:54:43;;;;;;;3.57;3.27;;;;;;;13.93;50.05;98569.09;7036435;28;20211;-82
2024/03/05 16:58:05;;;;;;;4.70;3.03;;;;;;;14.13;50.85;98625.72;7032761;28;20260;-82
2024/03/05 17:01:28;;;;;;;3.57;2.87;;;;;;;14.32;50.01;98619.19;7032740;28;20216;-79
2024/03/05 17:04:50;;;;;;;8.30;7.27;;;;;;;14.27;51.14;98609.06;7028037;28;20946;-82
2024/03/05 17:08:14;;;;;;;8.07;6.23;;;;;;;13.80;53.54;98631.63;7030811;28;20225;-82
2024/03/05 17:11:35;;;;;;;6.33;5.57;;;;;;;13.63;54.99;98627.91;7012452;28;20213;-81
2024/03/05 17:14:57;;;;;;;7.40;5.90;;;;;;;13.79;54.72;98619.16;7000650;28;20351;-82
2024/03/05 17:18:21;;;;;;;6.50;5.60;;;;;;;13.91;54.51;98609.16;6999799;28;20217;-82
2024/03/05 17:21:44;;;;;;;13.30;8.70;;;;;;;13.90;54.99;98628.38;7001514;28;20210;-81
2024/03/05 17:25:06;;;;;;;9.10;6.77;;;;;;;14.07;54.85;98629.38;7002697;28;20205;-81
2024/03/05 17:28:28;;;;;;;8.93;6.17;;;;;;;14.11;54.69;98623.25;7013739;28;20233;-81
2024/03/05 17:31:49;;;;;;;5.73;5.13;;;;;;;14.01;55.29;98628.41;7029329;28;20214;-81
2024/03/05 17:35:12;;;;;;;5.90;4.70;;;;;;;13.76;56.13;98635.03;7029569;28;20335;-83
2024/03/05 17:38:34;;;;;;;5.57;5.00;;;;;;;13.44;57.40;98633.56;7028798;28;20229;-81
2024/03/05 17:41:56;;;;;;;7.07;5.33;;;;;;;13.54;56.66;98639.28;7028567;28;20214;-81
2024/03/05 17:45:18;;;;;;;7.07;4.80;;;;;;;13.55;57.35;98640.94;7028952;28;20369;-81
2024/03/05 17:48:39;;;;;;;6.10;5.50;;;;;;;13.70;56.83;98647.59;7021569;28;20365;-82